Cruise inventory

Prince Madog PM4DW11

Cruise plan

Cruise Info. 
Ship name (ship code)Prince Madog (74PD)
Cruise identifierPM4DW11
Cruise period1978-06-05 — 1978-06-09
StatusCompleted
Port of departureMenai Bridge, United Kingdom
Port of returnMenai Bridge, United Kingdom
ObjectivesLiverpool Bay Front Survey.
Chief scientistSteven P R Czitrom Baus (University of Wales, Bangor School of Ocean Sciences)
Ocean/sea areas 
GeneralIrish Sea and St. George's Channel
Track chartsPrince Madog PM4DW11 cruise track — trk_livbaysurv.pdf (0.38 MB) 
Measurements 
Physical oceanography 
CTD stationsQuantity: number of stations = 87
Data held at BODC 
Series/Profiles 
87  CTD/STD cast
Vertical spatial coordinates
Salinity of the water column
Temperature of the water column
Vertical spatial coordinates
Salinity of the water column
Temperature of the water column

BODC idDate/TimeLocationDoc.
640531978-06-07 16:11 54° 4' 51" N  3° 59' 42" W  View metadata report for BODC series reference number 64053
640651978-06-07 17:15 54° 3' 32" N  3° 51' 17" W  View metadata report for BODC series reference number 64065
640771978-06-07 18:03 54° 4' 15" N  3° 45' 32" W  View metadata report for BODC series reference number 64077
640891978-06-07 18:48 54° 4' 22" N  3° 38' 56" W  View metadata report for BODC series reference number 64089
640901978-06-07 19:30 54° 4' 4" N  3° 31' 55" W  View metadata report for BODC series reference number 64090
641081978-06-07 20:15 54° 4' 47" N  3° 26' 45" W  View metadata report for BODC series reference number 64108
641211978-06-07 21:40 54° 12' 54" N  3° 32' 6" W  View metadata report for BODC series reference number 64121
641331978-06-07 22:38 54° 12' 25" N  3° 39' 57" W  View metadata report for BODC series reference number 64133
641451978-06-07 23:23 54° 12' 46" N  3° 46' 33" W  View metadata report for BODC series reference number 64145
641571978-06-08 00:30 54° 12' 46" N  3° 52' 51" W  View metadata report for BODC series reference number 64157
641691978-06-08 01:45 54° 4' 51" N  4° 1' 8" W  View metadata report for BODC series reference number 64169
641701978-06-08 02:46 54° 6' 7" N  4° 0' 57" W  View metadata report for BODC series reference number 64170
641821978-06-08 03:30 54° 12' 57" N  3° 59' 38" W  View metadata report for BODC series reference number 64182
641941978-06-08 04:15 54° 12' 36" N  4° 7' 30" W  View metadata report for BODC series reference number 64194
642011978-06-08 05:42 54° 17' 27" N  3° 52' 55" W  View metadata report for BODC series reference number 64201
642131978-06-08 06:43 54° 12' 54" N  3° 52' 8" W  View metadata report for BODC series reference number 64213
642251978-06-08 08:05 54° 5' 6" N  3° 45' 35" W  View metadata report for BODC series reference number 64225
642371978-06-08 08:43 54° 6' 0" N  3° 43' 15" W  View metadata report for BODC series reference number 64237
642491978-06-08 09:22 54° 4' 51" N  3° 32' 45" W  View metadata report for BODC series reference number 64249
642501978-06-08 09:50 54° 4' 33" N  3° 27' 18" W  View metadata report for BODC series reference number 64250
642621978-06-08 10:25 54° 4' 51" N  3° 20' 16" W  View metadata report for BODC series reference number 64262
642741978-06-08 11:03 54° 0' 43" N  3° 19' 11" W  View metadata report for BODC series reference number 64274
642861978-06-08 11:42 53° 57' 0" N  3° 19' 8" W  View metadata report for BODC series reference number 64286
642981978-06-08 12:32 53° 57' 0" N  3° 26' 31" W  View metadata report for BODC series reference number 64298
643051978-06-08 13:19 53° 57' 10" N  3° 33' 53" W  View metadata report for BODC series reference number 64305
643171978-06-08 14:05 53° 57' 3" N  3° 40' 51" W  View metadata report for BODC series reference number 64317
643291978-06-08 14:40 53° 56' 45" N  3° 46' 22" W  View metadata report for BODC series reference number 64329
643301978-06-08 15:20 53° 56' 52" N  3° 53' 2" W  View metadata report for BODC series reference number 64330
643421978-06-08 16:32 53° 48' 57" N  3° 53' 5" W  View metadata report for BODC series reference number 64342
643541978-06-08 17:17 53° 48' 43" N  3° 46' 37" W  View metadata report for BODC series reference number 64354
643661978-06-08 18:00 53° 48' 50" N  3° 40' 1" W  View metadata report for BODC series reference number 64366
643781978-06-08 18:45 53° 49' 12" N  3° 32' 49" W  View metadata report for BODC series reference number 64378
643911978-06-08 19:20 53° 48' 43" N  3° 25' 48" W  View metadata report for BODC series reference number 64391
644091978-06-08 20:00 53° 49' 4" N  3° 19' 11" W  View metadata report for BODC series reference number 64409
644101978-06-08 20:50 53° 48' 50" N  3° 26' 31" W  View metadata report for BODC series reference number 64410
644221978-06-08 21:40 53° 48' 57" N  3° 32' 56" W  View metadata report for BODC series reference number 64422
644341978-06-08 22:27 53° 49' 1" N  3° 40' 11" W  View metadata report for BODC series reference number 64434
644461978-06-08 23:10 53° 49' 19" N  3° 46' 8" W  View metadata report for BODC series reference number 64446
644581978-06-09 00:05 53° 48' 57" N  3° 53' 2" W  View metadata report for BODC series reference number 64458
644711978-06-09 01:23 53° 41' 16" N  4° 0' 21" W  View metadata report for BODC series reference number 64471
644831978-06-09 02:54 53° 41' 16" N  3° 53' 45" W  View metadata report for BODC series reference number 64483
644951978-06-09 03:42 53° 40' 51" N  3° 46' 58" W  View metadata report for BODC series reference number 64495
645021978-06-09 04:55 53° 41' 6" N  3° 40' 40" W  View metadata report for BODC series reference number 64502
645141978-06-09 05:40 53° 41' 6" N  3° 33' 53" W  View metadata report for BODC series reference number 64514
638971978-06-07 00:48 53° 48' 53" N  3° 26' 38" W  View metadata report for BODC series reference number 63897
639041978-06-07 01:40 53° 48' 53" N  3° 20' 9" W  View metadata report for BODC series reference number 63904
639161978-06-07 02:36 53° 53' 9" N  3° 19' 37" W  View metadata report for BODC series reference number 63916
639281978-06-07 03:20 53° 56' 56" N  3° 19' 33" W  View metadata report for BODC series reference number 63928
639411978-06-07 04:42 53° 57' 0" N  3° 27' 3" W  View metadata report for BODC series reference number 63941
639531978-06-07 05:20 53° 56' 49" N  3° 33' 10" W  View metadata report for BODC series reference number 63953
639651978-06-07 06:44 53° 57' 3" N  3° 40' 55" W  View metadata report for BODC series reference number 63965
639771978-06-07 07:30 53° 57' 3" N  3° 46' 37" W  View metadata report for BODC series reference number 63977
639891978-06-07 09:20 53° 56' 42" N  3° 53' 9" W  View metadata report for BODC series reference number 63989
639901978-06-07 10:17 53° 57' 10" N  3° 59' 49" W  View metadata report for BODC series reference number 63990
640041978-06-07 11:50 53° 56' 52" N  4° 6' 39" W  View metadata report for BODC series reference number 64004
640161978-06-07 12:38 53° 57' 0" N  4° 13' 19" W  View metadata report for BODC series reference number 64016
640281978-06-07 14:34 54° 5' 13" N  4° 12' 57" W  View metadata report for BODC series reference number 64028
640411978-06-07 15:24 54° 4' 51" N  4° 5' 31" W  View metadata report for BODC series reference number 64041
635721978-06-05 21:34 53° 41' 6" N  3° 19' 4" W  View metadata report for BODC series reference number 63572
635841978-06-05 23:24 53° 40' 58" N  3° 25' 51" W  View metadata report for BODC series reference number 63584
635961978-06-06 00:13 53° 40' 58" N  3° 33' 21" W  View metadata report for BODC series reference number 63596
636031978-06-06 01:52 53° 40' 51" N  3° 40' 1" W  View metadata report for BODC series reference number 63603
636151978-06-06 02:53 53° 40' 58" N  3° 46' 22" W  View metadata report for BODC series reference number 63615
636271978-06-06 04:25 53° 41' 6" N  3° 53' 13" W  View metadata report for BODC series reference number 63627
636391978-06-06 05:10 53° 40' 58" N  4° 0' 10" W  View metadata report for BODC series reference number 63639
636401978-06-06 07:35 53° 32' 34" N  4° 6' 14" W  View metadata report for BODC series reference number 63640
636521978-06-06 08:05 53° 32' 38" N  3° 59' 27" W  View metadata report for BODC series reference number 63652
636641978-06-06 08:45 53° 32' 38" N  3° 52' 37" W  View metadata report for BODC series reference number 63664
636761978-06-06 09:16 53° 32' 38" N  3° 45' 10" W  View metadata report for BODC series reference number 63676
636881978-06-06 10:08 53° 32' 59" N  3° 39' 50" W  View metadata report for BODC series reference number 63688
637071978-06-06 10:47 53° 32' 52" N  3° 33' 18" W  View metadata report for BODC series reference number 63707
637191978-06-06 11:29 53° 32' 56" N  3° 26' 38" W  View metadata report for BODC series reference number 63719
637201978-06-06 12:25 53° 29' 5" N  3° 26' 6" W  View metadata report for BODC series reference number 63720
637321978-06-06 13:13 53° 25' 4" N  3° 33' 7" W  View metadata report for BODC series reference number 63732
637441978-06-06 14:00 53° 24' 57" N  3° 40' 4" W  View metadata report for BODC series reference number 63744
637561978-06-06 14:35 53° 25' 4" N  3° 46' 55" W  View metadata report for BODC series reference number 63756
637681978-06-06 15:12 53° 25' 1" N  3° 53' 9" W  View metadata report for BODC series reference number 63768
637811978-06-06 15:50 53° 24' 50" N  4° 0' 7" W  View metadata report for BODC series reference number 63781
637931978-06-06 17:23 53° 32' 23" N  4° 14' 27" W  View metadata report for BODC series reference number 63793
638001978-06-06 18:37 53° 41' 23" N  4° 13' 11" W  View metadata report for BODC series reference number 63800
638121978-06-06 20:05 53° 49' 26" N  4° 12' 35" W  View metadata report for BODC series reference number 63812
638241978-06-06 20:43 53° 49' 12" N  4° 6' 46" W  View metadata report for BODC series reference number 63824
638361978-06-06 21:15 53° 49' 15" N  4° 0' 28" W  View metadata report for BODC series reference number 63836
638481978-06-06 21:55 53° 49' 12" N  3° 53' 2" W  View metadata report for BODC series reference number 63848
638611978-06-06 22:32 53° 48' 46" N  3° 46' 37" W  View metadata report for BODC series reference number 63861
638731978-06-06 23:20 53° 48' 50" N  3° 39' 43" W  View metadata report for BODC series reference number 63873
638851978-06-07 00:58 53° 48' 50" N  3° 33' 25" W  View metadata report for BODC series reference number 63885